createdAt,value
2022-10-26T00:00:11.915Z,94.26
2022-10-26T00:01:17.331Z,94.04
2022-10-26T00:02:21.154Z,93.98
2022-10-26T00:03:28.017Z,93.96
2022-10-26T00:04:32.389Z,93.77
2022-10-26T00:05:36.228Z,93.93
2022-10-26T00:06:39.806Z,93.95
2022-10-26T00:07:43.983Z,93.81
2022-10-26T00:08:49.019Z,93.87
2022-10-26T00:09:52.803Z,94.22
2022-10-26T00:10:58.981Z,94.11
2022-10-26T00:12:03.343Z,94.43
2022-10-26T00:13:12.572Z,94.81
2022-10-26T00:14:17.171Z,94.69
2022-10-26T00:15:21.128Z,94.38
2022-10-26T00:16:27.935Z,94.38
2022-10-26T00:17:32.006Z,94.55
2022-10-26T00:18:35.954Z,94.65
2022-10-26T00:19:39.820Z,94.59
2022-10-26T00:20:43.525Z,94.73
2022-10-26T00:21:47.190Z,94.82
2022-10-26T00:22:50.769Z,95.09
2022-10-26T00:23:54.756Z,94.78
2022-10-26T00:24:58.456Z,94.62
2022-10-26T00:26:02.760Z,94.65
2022-10-26T00:27:06.332Z,94.61
2022-10-26T00:28:10.176Z,94.76
2022-10-26T00:29:14.251Z,94.76
2022-10-26T00:30:18.217Z,94.55
2022-10-26T00:31:21.920Z,94.61
2022-10-26T00:32:25.636Z,94.84
2022-10-26T00:33:30.310Z,94.80
2022-10-26T00:34:34.482Z,94.86
2022-10-26T00:35:46.270Z,95.25
2022-10-26T00:36:50.089Z,95.55
2022-10-26T00:37:57.279Z,95.62
2022-10-26T00:39:00.884Z,95.45
2022-10-26T00:40:05.084Z,95.88
2022-10-26T00:41:08.669Z,95.95
2022-10-26T00:42:22.132Z,96.13
2022-10-26T00:43:25.951Z,96.22
2022-10-26T00:45:07.818Z,96.42
2022-10-26T00:46:36.356Z,96.58
2022-10-26T00:47:59.812Z,96.86
2022-10-26T00:49:13.583Z,96.95
2022-10-26T00:50:25.189Z,97.10
2022-10-26T00:51:42.968Z,96.98
2022-10-26T00:52:47.308Z,96.85
2022-10-26T00:53:53.836Z,96.58
2022-10-26T00:54:57.504Z,96.73
2022-10-26T00:56:02.461Z,96.48
2022-10-26T00:57:06.792Z,96.32
2022-10-26T00:58:12.001Z,96.33
2022-10-26T00:59:18.094Z,96.39
2022-10-26T01:00:22.177Z,96.43
2022-10-26T01:01:26.001Z,96.14
2022-10-26T01:02:29.815Z,96.18
2022-10-26T01:03:37.107Z,96.23
2022-10-26T01:04:41.106Z,96.43
2022-10-26T01:05:48.683Z,96.51
2022-10-26T01:06:53.359Z,96.28
2022-10-26T01:07:58.238Z,96.52
2022-10-26T01:09:01.981Z,96.15
2022-10-26T01:10:07.404Z,96.18
2022-10-26T01:11:12.941Z,96.05
2022-10-26T01:12:17.341Z,96.39
2022-10-26T01:13:21.813Z,96.54
2022-10-26T01:14:28.793Z,96.19
2022-10-26T01:15:52.139Z,96.24
2022-10-26T01:17:34.864Z,96.34
2022-10-26T01:19:05.255Z,96.78
2022-10-26T01:20:36.305Z,96.94
2022-10-26T01:21:57.736Z,96.87
2022-10-26T01:23:20.126Z,96.38
2022-10-26T01:24:58.845Z,96.53
2022-10-26T01:26:41.468Z,96.41
2022-10-26T01:27:53.137Z,96.50
2022-10-26T01:29:33.859Z,96.28
2022-10-26T01:30:45.895Z,96.40
2022-10-26T01:32:06.461Z,96.66
2022-10-26T01:33:26.857Z,96.66
2022-10-26T01:35:12.393Z,97.16
2022-10-26T01:36:38.362Z,97.13
2022-10-26T01:38:18.218Z,97.53
2022-10-26T01:39:33.558Z,97.09
2022-10-26T01:41:22.515Z,96.87
2022-10-26T01:42:29.995Z,96.90
2022-10-26T01:43:42.350Z,97.03
2022-10-26T01:44:56.652Z,97.52
2022-10-26T01:46:03.553Z,97.53
2022-10-26T01:47:12.042Z,97.40
2022-10-26T01:48:21.172Z,97.48
2022-10-26T01:49:42.273Z,97.25
2022-10-26T01:50:52.582Z,97.51
2022-10-26T01:51:56.357Z,97.51
2022-10-26T01:53:00.268Z,97.79
2022-10-26T01:54:04.234Z,97.42
2022-10-26T01:55:43.416Z,97.62
2022-10-26T01:57:02.605Z,97.58
2022-10-26T01:58:50.268Z,97.96
2022-10-26T12:36:54.442Z,55.00
2022-10-26T12:39:36.028Z,54.79
2022-10-26T13:00:47.357Z,53.71
2022-10-26T15:36:25.181Z,53.80
2022-10-26T15:38:16.486Z,53.98
2022-10-26T15:40:08.393Z,54.23
2022-10-26T15:57:17.945Z,55.70
2022-10-26T15:59:14.818Z,55.96
2022-10-26T18:20:22.996Z,79.69
2022-10-26T18:22:48.484Z,80.37
2022-10-26T18:28:35.427Z,80.69
2022-10-26T18:55:30.076Z,81.81
2022-10-26T19:40:13.188Z,84.00
2022-10-26T19:42:45.060Z,84.35
2022-10-26T19:44:34.124Z,84.30
2022-10-26T20:00:18.114Z,85.34
2022-10-26T20:02:32.691Z,85.60
2022-10-26T20:04:23.923Z,85.39
2022-10-26T22:20:01.209Z,94.83
2022-10-26T22:54:39.854Z,94.79
